Time;durP1;ratioP1;P1;durP2;ratioP2;P2;SDS_P1;SDS_P2;PMS_P1;PMS_P2;Temp;Humidity;BMP_temperature;BMP_pressure;BME280_temperature;BME280_humidity;BME280_pressure;Samples;Min_cycle;Max_cycle;Signal;HPM_P1;HPM_P2
2022/06/05 00:02:32;;;;;;;;;;;;;;;;;;5091857;28;883;-64
2022/06/05 00:05:18;;;;;;;;;;;;;;;;;;5091513;28;845;-64
2022/06/05 00:07:51;;;;;;;;;;;;;;;;;;5070089;28;1082;-64
2022/06/05 00:10:25;;;;;;;;;;;;;;;;;;5090834;28;1011;-64
2022/06/05 00:13:09;;;;;;;;;;;;;;;;;;5089372;28;1964;-63
2022/06/05 00:15:34;;;;;;;;;;;;;;;;;;5091110;28;1007;-64
2022/06/05 00:17:59;;;;;;;;;;;;;;;;;;5091065;28;828;-63
2022/06/05 00:20:25;;;;;;;;;;;;;;;;;;5090294;28;1504;-64
2022/06/05 00:22:50;;;;;;;;;;;;;;;;;;5091326;28;951;-64
2022/06/05 00:25:15;;;;;;;;;;;;;;;;;;5091556;28;939;-64
2022/06/05 00:27:40;;;;;;;;;;;;;;;;;;5091824;28;841;-64
2022/06/05 00:30:09;;;;;;;;;;;;;;;;;;5091672;28;809;-64
2022/06/05 00:32:41;;;;;;;;;;;;;;;;;;5091284;28;1963;-63
2022/06/05 00:35:08;;;;;;;;;;;;;;;;;;5091779;28;821;-64
2022/06/05 00:37:49;;;;;;;;;;;;;;;;;;5091255;28;895;-63
2022/06/05 00:40:37;;;;;;;;;;;;;;;;;;5089574;28;1329;-64
2022/06/05 00:43:06;;;;;;;;;;;;;;;;;;5091268;28;852;-64
2022/06/05 00:45:33;;;;;;;;;;;;;;;;;;5090186;28;1074;-63
2022/06/05 00:47:58;;;;;;;;;;;;;;;;;;5089416;28;1341;-64
2022/06/05 00:50:25;;;;;;;;;;;;;;;;;;5090340;28;1115;-64
2022/06/05 00:52:55;;;;;;;;;;;;;;;;;;5091213;28;1956;-63
2022/06/05 00:55:21;;;;;;;;;;;;;;;;;;5091126;28;861;-64
2022/06/05 00:57:47;;;;;;;;;;;;;;;;;;5089451;28;1171;-64
2022/06/05 01:00:14;;;;;;;;;;;;;;;;;;5073420;28;1210;-64
2022/06/05 01:02:41;;;;;;;;;;;;;;;;;;5091732;28;928;-63
2022/06/05 01:05:08;;;;;;;;;;;;;;;;;;5090363;28;1363;-63
2022/06/05 01:07:33;;;;;;;;;;;;;;;;;;5091793;28;864;-64
2022/06/05 01:09:58;;;;;;;;;;;;;;;;;;5091316;28;1025;-63
2022/06/05 01:12:42;;;;;;;;;;;;;;;;;;5089968;28;1974;-64
2022/06/05 01:15:26;;;;;;;;;;;;;;;;;;5091508;28;927;-63
2022/06/05 01:18:10;;;;;;;;;;;;;;;;;;5092167;28;931;-63
2022/06/05 01:20:35;;;;;;;;;;;;;;;;;;5090049;28;1161;-63
2022/06/05 01:23:00;;;;;;;;;;;;;;;;;;5091053;28;948;-63
2022/06/05 01:25:43;;;;;;;;;;;;;;;;;;5091917;28;974;-63
2022/06/05 01:28:11;;;;;;;;;;;;;;;;;;5091284;28;1022;-63
2022/06/05 01:30:44;;;;;;;;;;;;;;;;;;5090627;28;1317;-64
2022/06/05 01:33:13;;;;;;;;;;;;;;;;;;5091273;28;1956;-63
2022/06/05 01:35:44;;;;;;;;;;;;;;;;;;5091094;28;888;-64
2022/06/05 01:38:14;;;;;;;;;;;;;;;;;;5090412;28;995;-63
2022/06/05 01:40:45;;;;;;;;;;;;;;;;;;5089314;28;1146;-64
2022/06/05 01:43:12;;;;;;;;;;;;;;;;;;5091281;28;1191;-63
2022/06/05 01:45:44;;;;;;;;;;;;;;;;;;5110574;28;1183;-64
2022/06/05 01:48:12;;;;;;;;;;;;;;;;;;5110428;28;1226;-64
2022/06/05 01:50:39;;;;;;;;;;;;;;;;;;5106116;28;1215;-64
2022/06/05 01:53:18;;;;;;;;;;;;;;;;;;5113542;28;1902;-64
2022/06/05 01:55:49;;;;;;;;;;;;;;;;;;5114262;28;830;-64
2022/06/05 01:58:16;;;;;;;;;;;;;;;;;;5114253;28;785;-64
2022/06/05 02:00:46;;;;;;;;;;;;;;;;;;5114333;28;832;-64
2022/06/05 02:03:20;;;;;;;;;;;;;;;;;;5114077;27;990;-63
2022/06/05 02:05:49;;;;;;;;;;;;;;;;;;5114445;28;840;-64
2022/06/05 02:08:29;;;;;;;;;;;;;;;;;;5113940;28;888;-64
2022/06/05 02:11:03;;;;;;;;;;;;;;;;;;5113545;28;1020;-64
2022/06/05 02:13:29;;;;;;;;;;;;;;;;;;5114372;28;1976;-64
2022/06/05 02:15:54;;;;;;;;;;;;;;;;;;5113053;28;1201;-63
2022/06/05 02:18:20;;;;;;;;;;;;;;;;;;5114192;28;899;-64
2022/06/05 02:20:45;;;;;;;;;;;;;;;;;;5114371;28;947;-64
2022/06/05 02:23:14;;;;;;;;;;;;;;;;;;5113680;28;1146;-63
2022/06/05 02:25:39;;;;;;;;;;;;;;;;;;5113272;28;1222;-64
2022/06/05 02:28:07;;;;;;;;;;;;;;;;;;5113586;28;879;-64
2022/06/05 02:30:44;;;;;;;;;;;;;;;;;;5114254;28;844;-64
2022/06/05 02:33:23;;;;;;;;;;;;;;;;;;5111931;28;1937;-63
2022/06/05 02:36:10;;;;;;;;;;;;;;;;;;5113097;28;879;-63
2022/06/05 02:38:36;;;;;;;;;;;;;;;;;;5113342;28;1438;-64
2022/06/05 02:41:23;;;;;;;;;;;;;;;;;;5112810;28;836;-63
2022/06/05 02:46:58;;;;;;;;;;;;;;;;;;5113364;28;677;-64
2022/06/05 02:49:33;;;;;;;;;;;;;;;;;;5112168;28;1284;-64
2022/06/05 02:52:01;;;;;;;;;;;;;;;;;;5113357;28;892;-63
2022/06/05 02:54:27;;;;;;;;;;;;;;;;;;5113502;28;1959;-64
2022/06/05 02:56:55;;;;;;;;;;;;;;;;;;5112289;28;884;-64
2022/06/05 02:59:20;;;;;;;;;;;;;;;;;;5113135;28;902;-64
2022/06/05 03:04:29;;;;;;;;;;;;;;;;;;5113594;28;642;-63
2022/06/05 03:06:54;;;;;;;;;;;;;;;;;;5114057;28;813;-63
2022/06/05 03:09:20;;;;;;;;;;;;;;;;;;5111735;28;762;-63
2022/06/05 03:11:45;;;;;;;;;;;;;;;;;;5113102;28;975;-63
2022/06/05 03:14:10;;;;;;;;;;;;;;;;;;5112967;28;1910;-63
2022/06/05 03:16:36;;;;;;;;;;;;;;;;;;5113550;28;948;-63
2022/06/05 03:19:01;;;;;;;;;;;;;;;;;;5112653;28;796;-64
2022/06/05 03:21:30;;;;;;;;;;;;;;;;;;5111994;28;1278;-63
2022/06/05 03:23:55;;;;;;;;;;;;;;;;;;5112859;28;994;-63
2022/06/05 03:26:22;;;;;;;;;;;;;;;;;;5112598;28;1041;-64
2022/06/05 03:28:47;;;;;;;;;;;;;;;;;;5112201;28;929;-63
2022/06/05 03:31:12;;;;;;;;;;;;;;;;;;5111775;28;981;-63
2022/06/05 03:33:38;;;;;;;;;;;;;;;;;;5112274;28;1902;-63
2022/06/05 03:36:07;;;;;;;;;;;;;;;;;;5111412;28;911;-64
2022/06/05 03:38:33;;;;;;;;;;;;;;;;;;5112490;28;946;-64
2022/06/05 03:40:58;;;;;;;;;;;;;;;;;;5110931;28;1338;-64
2022/06/05 03:43:23;;;;;;;;;;;;;;;;;;5110343;28;1169;-64
2022/06/05 03:45:48;;;;;;;;;;;;;;;;;;5111139;28;1404;-63
2022/06/05 03:48:13;;;;;;;;;;;;;;;;;;5112556;28;856;-64
2022/06/05 03:50:39;;;;;;;;;;;;;;;;;;5113075;28;766;-63
2022/06/05 03:53:05;;;;;;;;;;;;;;;;;;5111842;28;1874;-64
2022/06/05 03:55:31;;;;;;;;;;;;;;;;;;5113378;28;757;-63
2022/06/05 03:57:57;;;;;;;;;;;;;;;;;;5112767;28;847;-63
2022/06/05 04:00:22;;;;;;;;;;;;;;;;;;5112294;28;887;-63
2022/06/05 04:02:47;;;;;;;;;;;;;;;;;;5112648;28;832;-63
2022/06/05 04:05:17;;;;;;;;;;;;;;;;;;5111843;28;994;-63
2022/06/05 04:07:42;;;;;;;;;;;;;;;;;;5112688;28;840;-63
2022/06/05 04:10:10;;;;;;;;;;;;;;;;;;5112096;28;884;-70
2022/06/05 04:12:35;;;;;;;;;;;;;;;;;;5110681;28;1910;-69
2022/06/05 04:15:01;;;;;;;;;;;;;;;;;;5111435;28;891;-70
2022/06/05 04:17:26;;;;;;;;;;;;;;;;;;5109858;28;1340;-70
2022/06/05 04:19:52;;;;;;;;;;;;;;;;;;5111614;28;892;-70
2022/06/05 04:22:17;;;;;;;;;;;;;;;;;;5111063;28;853;-70
2022/06/05 04:24:43;;;;;;;;;;;;;;;;;;5110330;28;812;-70
2022/06/05 04:27:08;;;;;;;;;;;;;;;;;;5110381;28;809;-63
2022/06/05 04:29:33;;;;;;;;;;;;;;;;;;5110743;28;883;-63
2022/06/05 04:31:58;;;;;;;;;;;;;;;;;;5112118;28;863;-63
2022/06/05 04:34:24;;;;;;;;;;;;;;;;;;5092817;28;1918;-63
2022/06/05 04:36:49;;;;;;;;;;;;;;;;;;5110455;28;1562;-64
2022/06/05 04:39:15;;;;;;;;;;;;;;;;;;5111558;28;1018;-64
2022/06/05 04:41:41;;;;;;;;;;;;;;;;;;5093865;28;841;-63
2022/06/05 04:44:07;;;;;;;;;;;;;;;;;;5111582;28;836;-70
2022/06/05 04:46:33;;;;;;;;;;;;;;;;;;5109801;28;882;-70
2022/06/05 04:48:58;;;;;;;;;;;;;;;;;;5111083;28;773;-70
2022/06/05 04:51:24;;;;;;;;;;;;;;;;;;5111186;28;908;-70
2022/06/05 04:53:50;;;;;;;;;;;;;;;;;;5111162;28;1926;-70
2022/06/05 04:56:19;;;;;;;;;;;;;;;;;;5111051;28;872;-70
2022/06/05 04:58:44;;;;;;;;;;;;;;;;;;5110938;28;825;-70
2022/06/05 05:01:30;;;;;;;;;;;;;;;;;;5110610;28;813;-70
2022/06/05 05:03:57;;;;;;;;;;;;;;;;;;5110685;28;1170;-70
2022/06/05 05:06:24;;;;;;;;;;;;;;;;;;5092473;28;1444;-70
2022/06/05 05:08:49;;;;;;;;;;;;;;;;;;5111114;28;848;-70
2022/06/05 05:11:15;;;;;;;;;;;;;;;;;;5110460;28;1004;-70
2022/06/05 05:13:41;;;;;;;;;;;;;;;;;;5111355;28;1913;-71
2022/06/05 05:16:07;;;;;;;;;;;;;;;;;;5111396;28;1746;-70
2022/06/05 05:18:32;;;;;;;;;;;;;;;;;;5111424;28;910;-70
2022/06/05 05:21:08;;;;;;;;;;;;;;;;;;5111084;28;856;-70
2022/06/05 05:23:34;;;;;;;;;;;;;;;;;;5113484;28;1348;-70
2022/06/05 05:26:25;;;;;;;;;;;;;;;;;;5114618;28;1237;-69
2022/06/05 05:28:51;;;;;;;;;;;;;;;;;;5108318;28;1382;-70
2022/06/05 05:31:18;;;;;;;;;;;;;;;;;;5101765;28;1227;-70
2022/06/05 05:33:44;;;;;;;;;;;;;;;;;;5100636;28;1955;-70
2022/06/05 05:36:10;;;;;;;;;;;;;;;;;;5111999;28;1143;-70
2022/06/05 05:38:36;;;;;;;;;;;;;;;;;;5114604;28;1213;-63
2022/06/05 05:43:45;;;;;;;;;;;;;;;;;;5093818;28;631;-64
2022/06/05 05:46:11;;;;;;;;;;;;;;;;;;5093830;28;880;-63
2022/06/05 05:48:37;;;;;;;;;;;;;;;;;;5094503;28;911;-63
2022/06/05 05:51:02;;;;;;;;;;;;;;;;;;5094207;28;970;-64
2022/06/05 05:53:27;;;;;;;;;;;;;;;;;;5092221;28;1985;-64
2022/06/05 05:55:53;;;;;;;;;;;;;;;;;;5093877;28;915;-64
2022/06/05 05:58:18;;;;;;;;;;;;;;;;;;5093256;28;888;-63
2022/06/05 06:00:43;;;;;;;;;;;;;;;;;;5093821;28;947;-63
2022/06/05 06:03:08;;;;;;;;;;;;;;;;;;5091960;28;837;-64
2022/06/05 06:05:34;;;;;;;;;;;;;;;;;;5093811;28;903;-64
2022/06/05 06:07:59;;;;;;;;;;;;;;;;;;5092052;28;1254;-63
2022/06/05 06:10:24;;;;;;;;;;;;;;;;;;5093799;28;912;-63
2022/06/05 06:12:50;;;;;;;;;;;;;;;;;;5093733;28;1977;-63
2022/06/05 06:15:15;;;;;;;;;;;;;;;;;;5093790;28;786;-64
2022/06/05 06:17:40;;;;;;;;;;;;;;;;;;5093764;28;809;-63
2022/06/05 06:20:06;;;;;;;;;;;;;;;;;;5093536;28;947;-63
2022/06/05 06:22:32;;;;;;;;;;;;;;;;;;5093375;28;904;-63
2022/06/05 06:24:57;;;;;;;;;;;;;;;;;;5075481;28;1235;-63
2022/06/05 06:27:23;;;;;;;;;;;;;;;;;;5093365;28;1062;-63
2022/06/05 06:29:48;;;;;;;;;;;;;;;;;;5093816;28;837;-63
2022/06/05 06:32:13;;;;;;;;;;;;;;;;;;5092216;28;1413;-63
2022/06/05 06:34:38;;;;;;;;;;;;;;;;;;5092209;28;1901;-63
2022/06/05 06:37:04;;;;;;;;;;;;;;;;;;5093716;28;955;-63
2022/06/05 06:39:29;;;;;;;;;;;;;;;;;;5091707;28;908;-63
2022/06/05 06:41:54;;;;;;;;;;;;;;;;;;5092884;28;943;-63
2022/06/05 06:44:20;;;;;;;;;;;;;;;;;;5092968;28;908;-63
2022/06/05 06:46:45;;;;;;;;;;;;;;;;;;5093441;28;975;-63
2022/06/05 06:49:10;;;;;;;;;;;;;;;;;;5093178;28;896;-63
2022/06/05 06:51:36;;;;;;;;;;;;;;;;;;5093268;28;1099;-63
2022/06/05 06:54:01;;;;;;;;;;;;;;;;;;5093693;28;1938;-63
2022/06/05 06:56:28;;;;;;;;;;;;;;;;;;5092410;28;1321;-63
2022/06/05 06:58:54;;;;;;;;;;;;;;;;;;5093824;28;753;-62
2022/06/05 07:01:19;;;;;;;;;;;;;;;;;;5093174;28;923;-62
2022/06/05 07:03:44;;;;;;;;;;;;;;;;;;5093703;28;951;-63
2022/06/05 07:06:12;;;;;;;;;;;;;;;;;;5092920;28;971;-63
2022/06/05 07:08:38;;;;;;;;;;;;;;;;;;5093609;28;828;-62
2022/06/05 07:11:07;;;;;;;;;;;;;;;;;;5093482;28;992;-63
2022/06/05 07:13:32;;;;;;;;;;;;;;;;;;5093136;28;1991;-63
2022/06/05 07:15:57;;;;;;;;;;;;;;;;;;5092854;28;861;-63
2022/06/05 07:18:23;;;;;;;;;;;;;;;;;;5092343;28;848;-63
2022/06/05 07:20:49;;;;;;;;;;;;;;;;;;5091779;28;856;-63
2022/06/05 07:23:14;;;;;;;;;;;;;;;;;;5092549;28;832;-63
2022/06/05 07:25:44;;;;;;;;;;;;;;;;;;5092312;28;825;-63
2022/06/05 07:28:10;;;;;;;;;;;;;;;;;;5092572;28;1281;-63
2022/06/05 07:30:35;;;;;;;;;;;;;;;;;;5106595;28;1147;-63
2022/06/05 07:33:00;;;;;;;;;;;;;;;;;;5111294;28;1963;-63
2022/06/05 07:35:26;;;;;;;;;;;;;;;;;;5107516;28;1159;-63
2022/06/05 07:37:51;;;;;;;;;;;;;;;;;;5092599;28;824;-63
2022/06/05 07:40:16;;;;;;;;;;;;;;;;;;5091514;28;853;-63
2022/06/05 07:42:42;;;;;;;;;;;;;;;;;;5093648;28;821;-63
2022/06/05 07:45:08;;;;;;;;;;;;;;;;;;5099177;28;1155;-63
2022/06/05 07:47:33;;;;;;;;;;;;;;;;;;5112328;28;1006;-62
2022/06/05 07:49:59;;;;;;;;;;;;;;;;;;5112761;28;848;-62
2022/06/05 07:55:09;;;;;;;;;;;;;;;;;;5113203;28;643;-62
2022/06/05 07:57:34;;;;;;;;;;;;;;;;;;5111359;28;1225;-62
2022/06/05 07:59:59;;;;;;;;;;;;;;;;;;5112949;28;821;-62
2022/06/05 08:02:26;;;;;;;;;;;;;;;;;;5112801;28;844;-62
2022/06/05 08:04:53;;;;;;;;;;;;;;;;;;5112035;28;866;-69
2022/06/05 08:07:20;;;;;;;;;;;;;;;;;;5110153;28;828;-69
2022/06/05 08:09:46;;;;;;;;;;;;;;;;;;5110223;28;1011;-69
2022/06/05 08:12:13;;;;;;;;;;;;;;;;;;5111089;28;984;-68
2022/06/05 08:14:39;;;;;;;;;;;;;;;;;;5111351;28;1977;-69
2022/06/05 08:17:07;;;;;;;;;;;;;;;;;;5110455;28;1166;-68
2022/06/05 08:19:32;;;;;;;;;;;;;;;;;;5111785;28;999;-69
2022/06/05 08:21:58;;;;;;;;;;;;;;;;;;5112164;28;990;-62
2022/06/05 08:24:23;;;;;;;;;;;;;;;;;;5110243;28;1148;-62
2022/06/05 08:26:49;;;;;;;;;;;;;;;;;;5111780;28;812;-62
2022/06/05 08:29:14;;;;;;;;;;;;;;;;;;5111831;28;907;-62
2022/06/05 08:31:40;;;;;;;;;;;;;;;;;;5111957;28;805;-63
2022/06/05 08:34:06;;;;;;;;;;;;;;;;;;5110057;28;1966;-62
2022/06/05 08:36:31;;;;;;;;;;;;;;;;;;5111647;28;1006;-62
2022/06/05 08:42:12;;;;;;;;;;;;;;;;;;5099399;28;1103;-62
2022/06/05 08:44:42;;;;;;;;;;;;;;;;;;5111726;28;931;-62
2022/06/05 08:47:36;;;;;;;;;;;;;;;;;;5110462;28;859;-62
2022/06/05 08:50:25;;;;;;;;;;;;;;;;;;5102024;28;1375;-62
2022/06/05 08:52:54;;;;;;;;;;;;;;;;;;5110806;28;1971;-62
2022/06/05 08:55:25;;;;;;;;;;;;;;;;;;5111432;28;828;-62
2022/06/05 08:58:03;;;;;;;;;;;;;;;;;;5111560;28;1353;-62
2022/06/05 09:00:29;;;;;;;;;;;;;;;;;;5115219;28;923;-62
2022/06/05 09:02:54;;;;;;;;;;;;;;;;;;5115375;28;938;-62
2022/06/05 09:05:35;;;;;;;;;;;;;;;;;;5113514;28;1321;-62
2022/06/05 09:08:03;;;;;;;;;;;;;;;;;;5114799;28;926;-63
2022/06/05 09:10:34;;;;;;;;;;;;;;;;;;5115005;28;895;-62
2022/06/05 09:13:04;;;;;;;;;;;;;;;;;;5114647;28;1902;-63
2022/06/05 09:15:49;;;;;;;;;;;;;;;;;;5114757;28;1033;-62
2022/06/05 09:18:16;;;;;;;;;;;;;;;;;;5114689;28;1329;-62
2022/06/05 09:20:51;;;;;;;;;;;;;;;;;;5115742;28;749;-63
2022/06/05 09:23:45;;;;;;;;;;;;;;;;;;5115189;28;801;-62
2022/06/05 09:26:13;;;;;;;;;;;;;;;;;;5115053;28;821;-62
2022/06/05 09:28:50;;;;;;;;;;;;;;;;;;5115619;28;887;-63
2022/06/05 09:31:25;;;;;;;;;;;;;;;;;;5115370;28;919;-62
2022/06/05 09:33:52;;;;;;;;;;;;;;;;;;5114874;28;1914;-62
2022/06/05 09:36:20;;;;;;;;;;;;;;;;;;5114899;28;880;-62
2022/06/05 09:38:54;;;;;;;;;;;;;;;;;;5115455;28;777;-62
2022/06/05 09:41:38;;;;;;;;;;;;;;;;;;5115400;27;899;-62
2022/06/05 09:44:03;;;;;;;;;;;;;;;;;;5114742;28;848;-63
2022/06/05 09:46:28;;;;;;;;;;;;;;;;;;5114508;28;888;-62
2022/06/05 09:49:03;;;;;;;;;;;;;;;;;;5114515;28;927;-62
2022/06/05 09:51:28;;;;;;;;;;;;;;;;;;5114061;28;835;-62
2022/06/05 09:53:54;;;;;;;;;;;;;;;;;;5114577;28;1905;-62
2022/06/05 09:58:24;;;;;;;;;;;;;;;;;;5112677;28;1339;-63
2022/06/05 09:59:24;;;;;;;;;;;;;;;;;;5114212;28;788;-62
2022/06/05 10:01:51;;;;;;;;;;;;;;;;;;5113341;28;1007;-62
2022/06/05 10:04:19;;;;;;;;;;;;;;;;;;5114183;28;813;-63
2022/06/05 10:06:55;;;;;;;;;;;;;;;;;;5114936;28;855;-63
2022/06/05 10:09:26;;;;;;;;;;;;;;;;;;5112681;28;817;-63
2022/06/05 10:11:54;;;;;;;;;;;;;;;;;;5112534;28;1340;-62
2022/06/05 10:14:29;;;;;;;;;;;;;;;;;;5113623;28;1984;-62
2022/06/05 10:16:57;;;;;;;;;;;;;;;;;;5114035;28;861;-63
2022/06/05 10:19:29;;;;;;;;;;;;;;;;;;5113658;28;796;-63
2022/06/05 10:22:03;;;;;;;;;;;;;;;;;;5113512;28;745;-63
2022/06/05 10:24:34;;;;;;;;;;;;;;;;;;5113170;28;1006;-63
2022/06/05 10:27:01;;;;;;;;;;;;;;;;;;5113274;28;821;-62
2022/06/05 10:29:40;;;;;;;;;;;;;;;;;;5111909;28;856;-63
2022/06/05 10:32:32;;;;;;;;;;;;;;;;;;5113546;28;836;-62
2022/06/05 10:35:12;;;;;;;;;;;;;;;;;;5108177;28;1882;-63
2022/06/05 10:37:48;;;;;;;;;;;;;;;;;;5113377;28;801;-63
2022/06/05 10:40:26;;;;;;;;;;;;;;;;;;5112926;28;879;-62
2022/06/05 10:43:30;;;;;;;;;;;;;;;;;;5111745;28;1441;-63
2022/06/05 10:45:57;;;;;;;;;;;;;;;;;;5069854;28;1256;-63
2022/06/05 10:48:35;;;;;;;;;;;;;;;;;;5052986;28;1349;-63
2022/06/05 10:51:11;;;;;;;;;;;;;;;;;;5093922;28;1089;-63
2022/06/05 10:53:40;;;;;;;;;;;;;;;;;;5111420;28;1959;-63
2022/06/05 10:56:05;;;;;;;;;;;;;;;;;;5112752;28;1022;-63
2022/06/05 10:58:40;;;;;;;;;;;;;;;;;;5112588;28;859;-63
2022/06/05 11:01:12;;;;;;;;;;;;;;;;;;5111675;28;1360;-63
2022/06/05 11:03:56;;;;;;;;;;;;;;;;;;5113645;28;970;-64
2022/06/05 11:06:30;;;;;;;;;;;;;;;;;;5113573;28;930;-63
2022/06/05 11:09:11;;;;;;;;;;;;;;;;;;5113476;27;863;-63
2022/06/05 11:14:58;;;;;;;;;;;;;;;;;;5112852;28;1969;-63
2022/06/05 11:17:42;;;;;;;;;;;;;;;;;;5113069;28;931;-63
2022/06/05 11:20:16;;;;;;;;;;;;;;;;;;5112796;28;800;-63
2022/06/05 11:22:54;;;;;;;;;;;;;;;;;;5111403;28;1328;-63
2022/06/05 11:25:22;;;;;;;;;;;;;;;;;;5112443;28;816;-63
2022/06/05 11:27:58;;;;;;;;;;;;;;;;;;5112954;28;836;-63
2022/06/05 11:30:26;;;;;;;;;;;;;;;;;;5110796;28;1816;-63
2022/06/05 11:32:58;;;;;;;;;;;;;;;;;;5112635;28;1961;-63
2022/06/05 11:35:29;;;;;;;;;;;;;;;;;;5112644;28;902;-62
2022/06/05 11:37:58;;;;;;;;;;;;;;;;;;5112895;28;994;-62
2022/06/05 11:40:29;;;;;;;;;;;;;;;;;;5112518;28;813;-63
2022/06/05 11:43:09;;;;;;;;;;;;;;;;;;5113140;28;872;-63
2022/06/05 11:45:40;;;;;;;;;;;;;;;;;;5111386;28;955;-63
2022/06/05 11:48:29;;;;;;;;;;;;;;;;;;5112382;28;809;-63
2022/06/05 11:51:14;;;;;;;;;;;;;;;;;;5112820;28;828;-64
2022/06/05 11:53:39;;;;;;;;;;;;;;;;;;5111226;28;1927;-64
2022/06/05 11:56:19;;;;;;;;;;;;;;;;;;5112126;28;901;-63
2022/06/05 11:58:47;;;;;;;;;;;;;;;;;;5112185;28;805;-64
2022/06/05 12:01:17;;;;;;;;;;;;;;;;;;5111523;28;840;-63
2022/06/05 12:03:46;;;;;;;;;;;;;;;;;;5112263;28;1131;-62
2022/06/05 12:06:17;;;;;;;;;;;;;;;;;;5112335;28;939;-68
2022/06/05 12:08:47;;;;;;;;;;;;;;;;;;5111217;28;1529;-68
2022/06/05 12:11:15;;;;;;;;;;;;;;;;;;5112778;28;1024;-67
2022/06/05 12:13:59;;;;;;;;;;;;;;;;;;5112741;28;1910;-68
2022/06/05 12:16:34;;;;;;;;;;;;;;;;;;5112132;28;840;-68
2022/06/05 12:19:08;;;;;;;;;;;;;;;;;;5111257;28;1387;-68
2022/06/05 12:21:53;;;;;;;;;;;;;;;;;;5110675;28;927;-68
2022/06/05 12:24:32;;;;;;;;;;;;;;;;;;5109409;28;1141;-68
2022/06/05 12:27:00;;;;;;;;;;;;;;;;;;5111743;28;840;-68
2022/06/05 12:29:28;;;;;;;;;;;;;;;;;;5110763;28;805;-68
2022/06/05 12:32:06;;;;;;;;;;;;;;;;;;5111232;28;1005;-68
2022/06/05 12:34:40;;;;;;;;;;;;;;;;;;5111608;28;1906;-68
2022/06/05 12:37:17;;;;;;;;;;;;;;;;;;5110299;28;1379;-68
2022/06/05 12:39:53;;;;;;;;;;;;;;;;;;5111994;28;859;-68
2022/06/05 12:42:29;;;;;;;;;;;;;;;;;;5111461;28;785;-68
2022/06/05 12:44:56;;;;;;;;;;;;;;;;;;5110699;28;1420;-68
2022/06/05 12:47:21;;;;;;;;;;;;;;;;;;5111407;28;843;-68
2022/06/05 12:50:01;;;;;;;;;;;;;;;;;;5112475;28;883;-68
2022/06/05 12:52:35;;;;;;;;;;;;;;;;;;5111676;28;1487;-68
2022/06/05 12:55:16;;;;;;;;;;;;;;;;;;5112878;28;1960;-68
2022/06/05 12:57:44;;;;;;;;;;;;;;;;;;5113001;28;773;-68
2022/06/05 13:00:16;;;;;;;;;;;;;;;;;;5112311;28;1216;-68
2022/06/05 13:02:54;;;;;;;;;;;;;;;;;;5113068;28;852;-68
2022/06/05 13:05:36;;;;;;;;;;;;;;;;;;5111359;28;1201;-68
2022/06/05 13:08:08;;;;;;;;;;;;;;;;;;5112154;28;887;-68
2022/06/05 13:10:41;;;;;;;;;;;;;;;;;;5112158;28;924;-68
2022/06/05 13:13:09;;;;;;;;;;;;;;;;;;5111007;28;1886;-68
2022/06/05 13:15:40;;;;;;;;;;;;;;;;;;5112166;28;828;-68
2022/06/05 13:18:13;;;;;;;;;;;;;;;;;;5110529;28;1273;-68
2022/06/05 13:20:51;;;;;;;;;;;;;;;;;;5112311;28;808;-68
2022/06/05 13:23:28;;;;;;;;;;;;;;;;;;5110901;28;809;-68
2022/06/05 13:26:12;;;;;;;;;;;;;;;;;;5111422;28;851;-68
2022/06/05 13:28:41;;;;;;;;;;;;;;;;;;5109717;28;1197;-68
2022/06/05 13:31:26;;;;;;;;;;;;;;;;;;5109943;28;1226;-69
2022/06/05 13:33:55;;;;;;;;;;;;;;;;;;5110771;28;1953;-69
2022/06/05 13:36:27;;;;;;;;;;;;;;;;;;5109264;28;1229;-68
2022/06/05 13:38:56;;;;;;;;;;;;;;;;;;5111391;28;990;-68
2022/06/05 13:41:39;;;;;;;;;;;;;;;;;;5110474;28;856;-68
2022/06/05 13:44:10;;;;;;;;;;;;;;;;;;5113231;28;839;-68
2022/06/05 13:46:36;;;;;;;;;;;;;;;;;;5114572;28;765;-68
2022/06/05 13:49:11;;;;;;;;;;;;;;;;;;5115311;28;852;-68
2022/06/05 13:51:39;;;;;;;;;;;;;;;;;;5113681;28;1028;-68
2022/06/05 13:54:14;;;;;;;;;;;;;;;;;;5115220;28;1913;-71
2022/06/05 13:56:46;;;;;;;;;;;;;;;;;;5115755;27;872;-67
2022/06/05 13:59:18;;;;;;;;;;;;;;;;;;5115219;28;895;-67
2022/06/05 14:01:59;;;;;;;;;;;;;;;;;;5115123;28;923;-67
2022/06/05 14:04:25;;;;;;;;;;;;;;;;;;5112870;28;1356;-67
2022/06/05 14:06:51;;;;;;;;;;;;;;;;;;5115645;28;935;-67
2022/06/05 14:09:36;;;;;;;;;;;;;;;;;;5113121;28;1443;-67
2022/06/05 14:12:02;;;;;;;;;;;;;;;;;;5115076;28;1078;-67
2022/06/05 14:14:34;;;;;;;;;;;;;;;;;;5112529;28;1913;-66
2022/06/05 14:17:00;;;;;;;;;;;;;;;;;;5115019;28;903;-67
2022/06/05 14:19:29;;;;;;;;;;;;;;;;;;5113717;28;1220;-67
2022/06/05 14:21:55;;;;;;;;;;;;;;;;;;5115106;27;832;-68
2022/06/05 14:24:22;;;;;;;;;;;;;;;;;;5113205;28;1205;-67
2022/06/05 14:26:50;;;;;;;;;;;;;;;;;;5115167;28;1005;-66
2022/06/05 14:29:24;;;;;;;;;;;;;;;;;;5114631;28;816;-68
2022/06/05 14:31:58;;;;;;;;;;;;;;;;;;5114968;28;903;-68
2022/06/05 14:34:29;;;;;;;;;;;;;;;;;;5114635;28;1902;-67
2022/06/05 14:37:04;;;;;;;;;;;;;;;;;;5115235;28;999;-67
2022/06/05 14:39:37;;;;;;;;;;;;;;;;;;5112872;28;1422;-67
2022/06/05 14:42:07;;;;;;;;;;;;;;;;;;5114904;28;1018;-66
2022/06/05 14:44:39;;;;;;;;;;;;;;;;;;5113912;28;832;-66
2022/06/05 14:47:10;;;;;;;;;;;;;;;;;;5114019;28;991;-66
2022/06/05 14:49:49;;;;;;;;;;;;;;;;;;5113198;28;777;-66
2022/06/05 14:52:17;;;;;;;;;;;;;;;;;;5113710;28;903;-65
2022/06/05 14:57:52;;;;;;;;;;;;;;;;;;5113793;28;780;-65
2022/06/05 15:00:37;;;;;;;;;;;;;;;;;;5111448;28;1282;-65
2022/06/05 15:03:33;;;;;;;;;;;;;;;;;;5105404;28;1086;-65
2022/06/05 15:05:59;;;;;;;;;;;;;;;;;;5113618;28;836;-65
2022/06/05 15:08:31;;;;;;;;;;;;;;;;;;5113197;28;1013;-65
2022/06/05 15:10:58;;;;;;;;;;;;;;;;;;5111027;28;1045;-66
2022/06/05 15:13:23;;;;;;;;;;;;;;;;;;5111608;28;1909;-65
2022/06/05 15:15:58;;;;;;;;;;;;;;;;;;5112819;28;758;-64
2022/06/05 15:18:23;;;;;;;;;;;;;;;;;;5111356;28;1196;-66
2022/06/05 15:20:48;;;;;;;;;;;;;;;;;;5111069;28;1276;-66
2022/06/05 15:23:20;;;;;;;;;;;;;;;;;;5110801;28;1194;-66
2022/06/05 15:25:50;;;;;;;;;;;;;;;;;;5112567;28;1010;-66
2022/06/05 15:28:21;;;;;;;;;;;;;;;;;;5112511;27;879;-66
2022/06/05 15:30:51;;;;;;;;;;;;;;;;;;5112067;28;879;-66
2022/06/05 15:33:17;;;;;;;;;;;;;;;;;;5111954;28;1965;-66
2022/06/05 15:36:01;;;;;;;;;;;;;;;;;;5110756;28;1308;-66
2022/06/05 15:38:42;;;;;;;;;;;;;;;;;;5112058;28;919;-66
2022/06/05 15:41:17;;;;;;;;;;;;;;;;;;5112797;28;769;-66
2022/06/05 15:43:49;;;;;;;;;;;;;;;;;;5112321;28;907;-66
2022/06/05 15:46:33;;;;;;;;;;;;;;;;;;5111875;28;954;-66
2022/06/05 15:49:10;;;;;;;;;;;;;;;;;;5112403;28;927;-66
2022/06/05 15:51:38;;;;;;;;;;;;;;;;;;5110089;28;911;-66
2022/06/05 15:54:18;;;;;;;;;;;;;;;;;;5111974;28;1960;-66
2022/06/05 15:56:46;;;;;;;;;;;;;;;;;;5110628;28;1332;-66
2022/06/05 15:59:30;;;;;;;;;;;;;;;;;;5112162;28;891;-66
2022/06/05 16:01:58;;;;;;;;;;;;;;;;;;5112340;28;1034;-67
2022/06/05 16:04:26;;;;;;;;;;;;;;;;;;5110315;28;1347;-66
2022/06/05 16:06:58;;;;;;;;;;;;;;;;;;5111229;28;903;-66
2022/06/05 16:09:43;;;;;;;;;;;;;;;;;;5112362;28;888;-66
2022/06/05 16:12:27;;;;;;;;;;;;;;;;;;5110704;28;1350;-66
2022/06/05 16:14:57;;;;;;;;;;;;;;;;;;5112011;28;1913;-66
2022/06/05 16:17:25;;;;;;;;;;;;;;;;;;5110618;28;1146;-66
2022/06/05 16:19:56;;;;;;;;;;;;;;;;;;5112508;28;1089;-66
2022/06/05 16:22:42;;;;;;;;;;;;;;;;;;5112171;28;827;-66
2022/06/05 16:25:30;;;;;;;;;;;;;;;;;;5111996;28;1003;-66
2022/06/05 16:28:14;;;;;;;;;;;;;;;;;;5106344;28;1091;-66
2022/06/05 16:30:41;;;;;;;;;;;;;;;;;;5112373;28;852;-66
2022/06/05 16:33:19;;;;;;;;;;;;;;;;;;5110645;28;1910;-65
2022/06/05 16:38:30;;;;;;;;;;;;;;;;;;5111250;28;797;-65
2022/06/05 16:41:01;;;;;;;;;;;;;;;;;;5109481;28;1455;-65
2022/06/05 16:43:27;;;;;;;;;;;;;;;;;;5109558;28;1357;-65
2022/06/05 16:45:58;;;;;;;;;;;;;;;;;;5110945;28;958;-66
2022/06/05 16:48:24;;;;;;;;;;;;;;;;;;5111198;28;836;-66
2022/06/05 16:50:55;;;;;;;;;;;;;;;;;;5111127;28;899;-65
2022/06/05 16:53:26;;;;;;;;;;;;;;;;;;5110873;28;1905;-65
2022/06/05 16:55:57;;;;;;;;;;;;;;;;;;5110943;28;824;-66
2022/06/05 16:58:38;;;;;;;;;;;;;;;;;;5109165;28;1432;-65
2022/06/05 17:01:13;;;;;;;;;;;;;;;;;;5110924;28;856;-66
2022/06/05 17:03:45;;;;;;;;;;;;;;;;;;5110879;28;1045;-65
2022/06/05 17:06:28;;;;;;;;;;;;;;;;;;5111355;28;848;-65
2022/06/05 17:08:57;;;;;;;;;;;;;;;;;;5110562;28;1053;-65
2022/06/05 17:11:43;;;;;;;;;;;;;;;;;;5110474;28;1058;-65
2022/06/05 17:14:09;;;;;;;;;;;;;;;;;;5110255;28;1983;-66
2022/06/05 17:16:40;;;;;;;;;;;;;;;;;;5109298;28;788;-65
2022/06/05 17:19:22;;;;;;;;;;;;;;;;;;5113063;28;1096;-66
2022/06/05 17:22:07;;;;;;;;;;;;;;;;;;5113202;28;1195;-65
2022/06/05 17:24:42;;;;;;;;;;;;;;;;;;5113100;28;1266;-65
2022/06/05 17:27:26;;;;;;;;;;;;;;;;;;5114480;28;824;-65
2022/06/05 17:30:03;;;;;;;;;;;;;;;;;;5114343;28;856;-65
2022/06/05 17:32:37;;;;;;;;;;;;;;;;;;5114333;28;868;-65
2022/06/05 17:35:14;;;;;;;;;;;;;;;;;;5114585;28;1965;-65
2022/06/05 17:37:55;;;;;;;;;;;;;;;;;;5115045;28;899;-65
2022/06/05 17:40:41;;;;;;;;;;;;;;;;;;5114249;28;927;-65
2022/06/05 17:43:25;;;;;;;;;;;;;;;;;;5082195;28;1179;-65
2022/06/05 17:45:50;;;;;;;;;;;;;;;;;;5114738;28;872;-66
2022/06/05 17:48:34;;;;;;;;;;;;;;;;;;5115207;28;1018;-65
2022/06/05 17:51:30;;;;;;;;;;;;;;;;;;5115286;28;868;-66
2022/06/05 17:53:56;;;;;;;;;;;;;;;;;;5113307;28;1898;-66
2022/06/05 17:56:28;;;;;;;;;;;;;;;;;;5096442;28;1514;-66
2022/06/05 17:58:53;;;;;;;;;;;;;;;;;;5115056;28;863;-66
2022/06/05 18:01:19;;;;;;;;;;;;;;;;;;5114485;28;965;-66
2022/06/05 18:03:44;;;;;;;;;;;;;;;;;;5114840;28;808;-66